sensor_id;sensor_type;location;lat;lon;timestamp;temperature;humidity
21918;DHT22;11123;49.882;8.662;2022-10-16T00:01:59;16.00;99.90
21918;DHT22;11123;49.882;8.662;2022-10-16T00:04:28;15.90;99.90
21918;DHT22;11123;49.882;8.662;2022-10-16T00:06:58;16.00;99.90
21918;DHT22;11123;49.882;8.662;2022-10-16T00:09:27;16.00;99.90
21918;DHT22;11123;49.882;8.662;2022-10-16T00:11:55;16.00;99.90
21918;DHT22;11123;49.882;8.662;2022-10-16T00:14:24;16.00;99.90
21918;DHT22;11123;49.882;8.662;2022-10-16T00:16:52;16.00;99.90
21918;DHT22;11123;49.882;8.662;2022-10-16T00:19:20;16.00;99.90
21918;DHT22;11123;49.882;8.662;2022-10-16T00:21:49;16.00;99.90
21918;DHT22;11123;49.882;8.662;2022-10-16T00:24:37;16.00;99.90
21918;DHT22;11123;49.882;8.662;2022-10-16T00:27:06;16.00;99.90
21918;DHT22;11123;49.882;8.662;2022-10-16T00:29:34;16.00;99.90
21918;DHT22;11123;49.882;8.662;2022-10-16T00:32:03;16.00;99.90
21918;DHT22;11123;49.882;8.662;2022-10-16T00:34:31;16.00;99.90
21918;DHT22;11123;49.882;8.662;2022-10-16T00:37:00;15.90;99.90
21918;DHT22;11123;49.882;8.662;2022-10-16T00:39:28;15.90;99.90
21918;DHT22;11123;49.882;8.662;2022-10-16T00:41:58;15.90;99.90
21918;DHT22;11123;49.882;8.662;2022-10-16T00:44:44;15.90;99.90
21918;DHT22;11123;49.882;8.662;2022-10-16T00:47:17;15.90;99.90
21918;DHT22;11123;49.882;8.662;2022-10-16T00:49:47;15.80;99.90
21918;DHT22;11123;49.882;8.662;2022-10-16T00:52:16;15.80;99.90
21918;DHT22;11123;49.882;8.662;2022-10-16T00:54:46;15.80;99.90
21918;DHT22;11123;49.882;8.662;2022-10-16T00:57:16;15.80;99.90
21918;DHT22;11123;49.882;8.662;2022-10-16T00:59:45;15.70;99.90
21918;DHT22;11123;49.882;8.662;2022-10-16T01:02:14;15.70;99.90
21918;DHT22;11123;49.882;8.662;2022-10-16T01:04:46;15.70;99.90
21918;DHT22;11123;49.882;8.662;2022-10-16T01:07:23;15.70;99.90
21918;DHT22;11123;49.882;8.662;2022-10-16T01:10:05;15.70;99.90
21918;DHT22;11123;49.882;8.662;2022-10-16T01:12:41;15.60;99.90
21918;DHT22;11123;49.882;8.662;2022-10-16T01:15:18;15.60;99.90
21918;DHT22;11123;49.882;8.662;2022-10-16T01:17:53;15.70;99.90
21918;DHT22;11123;49.882;8.662;2022-10-16T01:20:27;15.60;99.90
21918;DHT22;11123;49.882;8.662;2022-10-16T01:23:06;15.60;99.90
21918;DHT22;11123;49.882;8.662;2022-10-16T01:26:02;15.60;99.90
21918;DHT22;11123;49.882;8.662;2022-10-16T01:28:40;15.60;99.90
21918;DHT22;11123;49.882;8.662;2022-10-16T01:31:11;15.60;99.90
21918;DHT22;11123;49.882;8.662;2022-10-16T01:33:45;15.60;99.90
21918;DHT22;11123;49.882;8.662;2022-10-16T01:36:18;15.60;99.90
21918;DHT22;11123;49.882;8.662;2022-10-16T01:38:51;15.60;99.90
21918;DHT22;11123;49.882;8.662;2022-10-16T01:41:24;15.60;99.90
21918;DHT22;11123;49.882;8.662;2022-10-16T01:43:59;15.60;99.90
21918;DHT22;11123;49.882;8.662;2022-10-16T01:46:31;15.60;99.90
21918;DHT22;11123;49.882;8.662;2022-10-16T01:49:00;15.60;99.90
21918;DHT22;11123;49.882;8.662;2022-10-16T01:51:30;15.60;99.90
21918;DHT22;11123;49.882;8.662;2022-10-16T01:54:00;15.60;99.90
21918;DHT22;11123;49.882;8.662;2022-10-16T01:56:29;15.70;99.90
21918;DHT22;11123;49.882;8.662;2022-10-16T01:59:01;15.70;99.90
21918;DHT22;11123;49.882;8.662;2022-10-16T02:01:32;15.70;99.90
21918;DHT22;11123;49.882;8.662;2022-10-16T02:04:07;15.70;99.90
21918;DHT22;11123;49.882;8.662;2022-10-16T02:06:36;15.80;99.90
21918;DHT22;11123;49.882;8.662;2022-10-16T02:09:05;15.80;99.90
21918;DHT22;11123;49.882;8.662;2022-10-16T02:11:34;15.80;99.90
21918;DHT22;11123;49.882;8.662;2022-10-16T02:14:08;15.80;99.90
21918;DHT22;11123;49.882;8.662;2022-10-16T02:16:38;15.80;99.90
21918;DHT22;11123;49.882;8.662;2022-10-16T02:19:13;15.80;99.90
21918;DHT22;11123;49.882;8.662;2022-10-16T02:21:46;15.90;99.90
21918;DHT22;11123;49.882;8.662;2022-10-16T02:24:24;15.80;99.90
21918;DHT22;11123;49.882;8.662;2022-10-16T02:27:01;15.90;99.90
21918;DHT22;11123;49.882;8.662;2022-10-16T02:29:34;15.90;99.90
21918;DHT22;11123;49.882;8.662;2022-10-16T02:32:07;15.90;99.90
21918;DHT22;11123;49.882;8.662;2022-10-16T02:34:39;15.90;99.90
21918;DHT22;11123;49.882;8.662;2022-10-16T02:37:08;15.90;99.90
21918;DHT22;11123;49.882;8.662;2022-10-16T02:39:38;15.80;99.90
21918;DHT22;11123;49.882;8.662;2022-10-16T02:42:10;15.90;99.90
21918;DHT22;11123;49.882;8.662;2022-10-16T02:44:40;15.90;99.90
21918;DHT22;11123;49.882;8.662;2022-10-16T02:47:08;15.90;99.90
21918;DHT22;11123;49.882;8.662;2022-10-16T02:49:37;15.90;99.90
21918;DHT22;11123;49.882;8.662;2022-10-16T02:52:05;15.90;99.90
21918;DHT22;11123;49.882;8.662;2022-10-16T02:54:33;15.90;99.90
21918;DHT22;11123;49.882;8.662;2022-10-16T02:57:02;16.00;99.90
21918;DHT22;11123;49.882;8.662;2022-10-16T02:59:30;16.00;99.90
21918;DHT22;11123;49.882;8.662;2022-10-16T03:01:59;16.00;99.90
21918;DHT22;11123;49.882;8.662;2022-10-16T03:04:28;16.00;99.90
21918;DHT22;11123;49.882;8.662;2022-10-16T03:06:56;16.00;99.90
21918;DHT22;11123;49.882;8.662;2022-10-16T03:09:24;16.00;99.90
21918;DHT22;11123;49.882;8.662;2022-10-16T03:11:53;16.00;99.90
21918;DHT22;11123;49.882;8.662;2022-10-16T03:14:21;16.00;99.90
21918;DHT22;11123;49.882;8.662;2022-10-16T03:16:52;16.00;99.90
21918;DHT22;11123;49.882;8.662;2022-10-16T03:19:26;16.00;99.90
21918;DHT22;11123;49.882;8.662;2022-10-16T03:21:55;16.00;99.90
21918;DHT22;11123;49.882;8.662;2022-10-16T03:24:23;16.00;99.90
21918;DHT22;11123;49.882;8.662;2022-10-16T03:26:51;16.10;99.90
21918;DHT22;11123;49.882;8.662;2022-10-16T03:29:21;16.00;99.90
21918;DHT22;11123;49.882;8.662;2022-10-16T03:31:49;16.00;99.90
21918;DHT22;11123;49.882;8.662;2022-10-16T03:34:17;16.00;99.90
21918;DHT22;11123;49.882;8.662;2022-10-16T03:36:47;16.10;99.90
21918;DHT22;11123;49.882;8.662;2022-10-16T03:39:15;16.10;99.90
21918;DHT22;11123;49.882;8.662;2022-10-16T03:41:43;16.00;99.90
21918;DHT22;11123;49.882;8.662;2022-10-16T03:44:13;16.00;99.90
21918;DHT22;11123;49.882;8.662;2022-10-16T03:46:42;16.00;99.90
21918;DHT22;11123;49.882;8.662;2022-10-16T03:49:10;16.00;99.90
21918;DHT22;11123;49.882;8.662;2022-10-16T03:51:38;16.00;99.90
21918;DHT22;11123;49.882;8.662;2022-10-16T03:54:09;16.00;99.90
21918;DHT22;11123;49.882;8.662;2022-10-16T03:56:38;16.00;99.90
21918;DHT22;11123;49.882;8.662;2022-10-16T03:59:06;16.00;99.90
21918;DHT22;11123;49.882;8.662;2022-10-16T04:01:34;16.00;99.90
21918;DHT22;11123;49.882;8.662;2022-10-16T04:04:03;16.00;99.90
21918;DHT22;11123;49.882;8.662;2022-10-16T04:06:31;16.00;99.90
21918;DHT22;11123;49.882;8.662;2022-10-16T04:08:59;15.90;99.90
21918;DHT22;11123;49.882;8.662;2022-10-16T04:11:29;15.80;99.90
21918;DHT22;11123;49.882;8.662;2022-10-16T04:13:58;15.90;99.90
21918;DHT22;11123;49.882;8.662;2022-10-16T04:16:27;15.90;99.90
21918;DHT22;11123;49.882;8.662;2022-10-16T04:18:55;15.90;99.90
21918;DHT22;11123;49.882;8.662;2022-10-16T04:21:23;16.00;99.90
21918;DHT22;11123;49.882;8.662;2022-10-16T04:23:52;16.00;99.90
21918;DHT22;11123;49.882;8.662;2022-10-16T04:26:20;16.00;99.90
21918;DHT22;11123;49.882;8.662;2022-10-16T04:28:50;15.90;99.90
21918;DHT22;11123;49.882;8.662;2022-10-16T04:31:18;15.90;99.90
21918;DHT22;11123;49.882;8.662;2022-10-16T04:33:47;15.90;99.90
21918;DHT22;11123;49.882;8.662;2022-10-16T04:36:15;15.90;99.90
21918;DHT22;11123;49.882;8.662;2022-10-16T04:38:43;15.90;99.90
21918;DHT22;11123;49.882;8.662;2022-10-16T04:41:12;15.90;99.90
21918;DHT22;11123;49.882;8.662;2022-10-16T04:43:40;15.90;99.90
21918;DHT22;11123;49.882;8.662;2022-10-16T04:46:10;15.80;99.90
21918;DHT22;11123;49.882;8.662;2022-10-16T04:48:38;15.80;99.90
21918;DHT22;11123;49.882;8.662;2022-10-16T04:51:07;15.80;99.90
21918;DHT22;11123;49.882;8.662;2022-10-16T04:53:35;15.80;99.90
21918;DHT22;11123;49.882;8.662;2022-10-16T04:56:03;15.70;99.90
21918;DHT22;11123;49.882;8.662;2022-10-16T04:58:32;15.70;99.90
21918;DHT22;11123;49.882;8.662;2022-10-16T05:01:00;15.70;99.90
21918;DHT22;11123;49.882;8.662;2022-10-16T05:03:30;15.70;99.90
21918;DHT22;11123;49.882;8.662;2022-10-16T05:05:58;15.80;99.90
21918;DHT22;11123;49.882;8.662;2022-10-16T05:08:26;15.80;99.90
21918;DHT22;11123;49.882;8.662;2022-10-16T05:10:54;15.80;99.90
21918;DHT22;11123;49.882;8.662;2022-10-16T05:13:23;15.70;99.90
21918;DHT22;11123;49.882;8.662;2022-10-16T05:15:51;15.70;99.90
21918;DHT22;11123;49.882;8.662;2022-10-16T05:18:20;15.80;99.90
21918;DHT22;11123;49.882;8.662;2022-10-16T05:20:50;15.70;99.90
21918;DHT22;11123;49.882;8.662;2022-10-16T05:23:18;15.70;99.90
21918;DHT22;11123;49.882;8.662;2022-10-16T05:25:52;15.70;99.90
21918;DHT22;11123;49.882;8.662;2022-10-16T05:28:21;15.70;99.90
21918;DHT22;11123;49.882;8.662;2022-10-16T05:30:50;15.70;99.90
21918;DHT22;11123;49.882;8.662;2022-10-16T05:33:20;15.70;99.90
21918;DHT22;11123;49.882;8.662;2022-10-16T05:35:50;15.70;99.90
21918;DHT22;11123;49.882;8.662;2022-10-16T05:38:18;15.60;99.90
21918;DHT22;11123;49.882;8.662;2022-10-16T05:40:55;15.60;99.90
21918;DHT22;11123;49.882;8.662;2022-10-16T05:43:24;15.50;99.90
21918;DHT22;11123;49.882;8.662;2022-10-16T05:45:55;15.50;99.90
21918;DHT22;11123;49.882;8.662;2022-10-16T05:48:23;15.50;99.90
21918;DHT22;11123;49.882;8.662;2022-10-16T05:51:02;15.50;99.90
21918;DHT22;11123;49.882;8.662;2022-10-16T05:53:32;15.50;99.90
21918;DHT22;11123;49.882;8.662;2022-10-16T05:56:00;15.50;99.90
21918;DHT22;11123;49.882;8.662;2022-10-16T05:58:30;15.50;99.90
21918;DHT22;11123;49.882;8.662;2022-10-16T06:01:01;15.50;99.90
21918;DHT22;11123;49.882;8.662;2022-10-16T06:03:30;15.50;99.90
21918;DHT22;11123;49.882;8.662;2022-10-16T06:06:07;15.50;99.90
21918;DHT22;11123;49.882;8.662;2022-10-16T06:08:39;15.60;99.90
21918;DHT22;11123;49.882;8.662;2022-10-16T06:11:09;15.60;99.90
21918;DHT22;11123;49.882;8.662;2022-10-16T06:13:37;15.60;99.90
21918;DHT22;11123;49.882;8.662;2022-10-16T06:16:09;15.50;99.90
21918;DHT22;11123;49.882;8.662;2022-10-16T06:18:38;15.60;99.90
21918;DHT22;11123;49.882;8.662;2022-10-16T06:21:14;15.60;99.90
21918;DHT22;11123;49.882;8.662;2022-10-16T06:23:44;15.60;99.90
21918;DHT22;11123;49.882;8.662;2022-10-16T06:26:16;15.60;99.90
21918;DHT22;11123;49.882;8.662;2022-10-16T06:28:45;15.60;99.90
21918;DHT22;11123;49.882;8.662;2022-10-16T06:31:14;15.60;99.90
21918;DHT22;11123;49.882;8.662;2022-10-16T06:33:42;15.60;99.90
21918;DHT22;11123;49.882;8.662;2022-10-16T06:36:16;15.60;99.90
21918;DHT22;11123;49.882;8.662;2022-10-16T06:38:45;15.60;99.90
21918;DHT22;11123;49.882;8.662;2022-10-16T06:41:15;15.60;99.90
21918;DHT22;11123;49.882;8.662;2022-10-16T06:43:45;15.70;99.90
21918;DHT22;11123;49.882;8.662;2022-10-16T06:46:16;15.70;99.90
21918;DHT22;11123;49.882;8.662;2022-10-16T06:48:46;15.70;99.90
21918;DHT22;11123;49.882;8.662;2022-10-16T06:51:18;15.70;99.90
21918;DHT22;11123;49.882;8.662;2022-10-16T06:53:48;15.80;99.90
21918;DHT22;11123;49.882;8.662;2022-10-16T06:56:33;15.80;99.90
21918;DHT22;11123;49.882;8.662;2022-10-16T06:59:02;15.80;99.90
21918;DHT22;11123;49.882;8.662;2022-10-16T07:01:30;15.90;99.90
21918;DHT22;11123;49.882;8.662;2022-10-16T07:04:00;16.00;99.90
21918;DHT22;11123;49.882;8.662;2022-10-16T07:06:33;16.00;99.90
21918;DHT22;11123;49.882;8.662;2022-10-16T07:09:05;16.10;99.90
21918;DHT22;11123;49.882;8.662;2022-10-16T07:11:34;16.10;99.90
21918;DHT22;11123;49.882;8.662;2022-10-16T07:14:02;16.20;99.90
21918;DHT22;11123;49.882;8.662;2022-10-16T07:16:32;16.20;99.90
21918;DHT22;11123;49.882;8.662;2022-10-16T07:19:02;16.30;99.90
21918;DHT22;11123;49.882;8.662;2022-10-16T07:21:34;16.30;99.90
21918;DHT22;11123;49.882;8.662;2022-10-16T07:24:05;16.40;99.90
21918;DHT22;11123;49.882;8.662;2022-10-16T07:26:35;16.40;99.90
21918;DHT22;11123;49.882;8.662;2022-10-16T07:29:04;16.50;99.90
21918;DHT22;11123;49.882;8.662;2022-10-16T07:31:32;16.50;99.90
21918;DHT22;11123;49.882;8.662;2022-10-16T07:34:01;16.60;99.90
21918;DHT22;11123;49.882;8.662;2022-10-16T07:36:29;16.60;99.90
21918;DHT22;11123;49.882;8.662;2022-10-16T07:38:59;16.70;99.90
21918;DHT22;11123;49.882;8.662;2022-10-16T07:41:27;16.70;99.90
21918;DHT22;11123;49.882;8.662;2022-10-16T07:43:56;16.70;99.90
21918;DHT22;11123;49.882;8.662;2022-10-16T07:46:27;16.70;99.90
21918;DHT22;11123;49.882;8.662;2022-10-16T07:48:55;16.60;99.90
21918;DHT22;11123;49.882;8.662;2022-10-16T07:51:25;16.70;99.90
21918;DHT22;11123;49.882;8.662;2022-10-16T07:53:54;16.60;99.90
21918;DHT22;11123;49.882;8.662;2022-10-16T07:56:23;16.60;99.90
21918;DHT22;11123;49.882;8.662;2022-10-16T07:58:52;16.60;99.90
21918;DHT22;11123;49.882;8.662;2022-10-16T08:01:21;16.70;99.90
21918;DHT22;11123;49.882;8.662;2022-10-16T08:03:50;16.70;99.90
21918;DHT22;11123;49.882;8.662;2022-10-16T08:06:20;16.70;99.90
21918;DHT22;11123;49.882;8.662;2022-10-16T08:08:55;16.70;99.90
21918;DHT22;11123;49.882;8.662;2022-10-16T08:11:28;16.80;99.90
21918;DHT22;11123;49.882;8.662;2022-10-16T08:13:56;16.80;99.90
21918;DHT22;11123;49.882;8.662;2022-10-16T08:16:24;16.80;99.90
21918;DHT22;11123;49.882;8.662;2022-10-16T08:18:53;16.80;99.90
21918;DHT22;11123;49.882;8.662;2022-10-16T08:21:22;16.90;99.90
21918;DHT22;11123;49.882;8.662;2022-10-16T08:23:53;16.90;99.90
21918;DHT22;11123;49.882;8.662;2022-10-16T08:26:25;16.90;99.90
21918;DHT22;11123;49.882;8.662;2022-10-16T08:28:56;16.70;99.90
21918;DHT22;11123;49.882;8.662;2022-10-16T08:31:25;16.70;99.90
21918;DHT22;11123;49.882;8.662;2022-10-16T08:33:54;16.70;99.90
21918;DHT22;11123;49.882;8.662;2022-10-16T08:36:23;16.60;99.90
21918;DHT22;11123;49.882;8.662;2022-10-16T08:38:53;16.60;99.90
21918;DHT22;11123;49.882;8.662;2022-10-16T08:44:34;16.50;99.90
21918;DHT22;11123;49.882;8.662;2022-10-16T08:47:15;16.40;99.90
21918;DHT22;11123;49.882;8.662;2022-10-16T08:49:55;16.40;99.90
21918;DHT22;11123;49.882;8.662;2022-10-16T08:52:28;16.30;99.90
21918;DHT22;11123;49.882;8.662;2022-10-16T08:54:58;16.30;99.90
21918;DHT22;11123;49.882;8.662;2022-10-16T08:57:27;16.20;99.90
21918;DHT22;11123;49.882;8.662;2022-10-16T09:00:08;16.20;99.90
21918;DHT22;11123;49.882;8.662;2022-10-16T09:02:45;16.20;99.90
21918;DHT22;11123;49.882;8.662;2022-10-16T09:05:24;16.10;99.90
21918;DHT22;11123;49.882;8.662;2022-10-16T09:08:07;16.10;99.90
21918;DHT22;11123;49.882;8.662;2022-10-16T09:10:46;16.10;99.90
21918;DHT22;11123;49.882;8.662;2022-10-16T09:13:23;16.10;99.90
21918;DHT22;11123;49.882;8.662;2022-10-16T09:16:04;16.10;99.90
21918;DHT22;11123;49.882;8.662;2022-10-16T09:18:45;16.00;99.90
21918;DHT22;11123;49.882;8.662;2022-10-16T09:21:19;16.00;99.90
21918;DHT22;11123;49.882;8.662;2022-10-16T09:23:50;16.10;99.90
21918;DHT22;11123;49.882;8.662;2022-10-16T09:26:19;16.20;99.90
21918;DHT22;11123;49.882;8.662;2022-10-16T09:28:52;16.30;99.90
21918;DHT22;11123;49.882;8.662;2022-10-16T09:31:22;16.30;99.90
21918;DHT22;11123;49.882;8.662;2022-10-16T09:33:54;16.30;99.90
21918;DHT22;11123;49.882;8.662;2022-10-16T09:36:27;16.40;99.90
21918;DHT22;11123;49.882;8.662;2022-10-16T09:39:04;16.50;99.90
21918;DHT22;11123;49.882;8.662;2022-10-16T09:41:35;16.60;99.90
21918;DHT22;11123;49.882;8.662;2022-10-16T09:44:14;16.60;99.90
21918;DHT22;11123;49.882;8.662;2022-10-16T09:46:47;16.80;99.90
21918;DHT22;11123;49.882;8.662;2022-10-16T09:49:22;16.80;99.90
21918;DHT22;11123;49.882;8.662;2022-10-16T09:52:02;17.00;99.90
21918;DHT22;11123;49.882;8.662;2022-10-16T09:54:31;17.00;99.90
21918;DHT22;11123;49.882;8.662;2022-10-16T09:57:06;17.20;99.90
21918;DHT22;11123;49.882;8.662;2022-10-16T09:59:45;17.20;99.90
21918;DHT22;11123;49.882;8.662;2022-10-16T10:02:17;17.30;99.90
21918;DHT22;11123;49.882;8.662;2022-10-16T10:04:51;17.50;99.90
21918;DHT22;11123;49.882;8.662;2022-10-16T10:07:25;17.60;99.90
21918;DHT22;11123;49.882;8.662;2022-10-16T10:09:56;17.70;99.90
21918;DHT22;11123;49.882;8.662;2022-10-16T10:12:26;17.80;99.90
21918;DHT22;11123;49.882;8.662;2022-10-16T10:14:57;17.90;99.90
21918;DHT22;11123;49.882;8.662;2022-10-16T10:17:28;18.00;99.90
21918;DHT22;11123;49.882;8.662;2022-10-16T10:20:00;18.10;99.90
21918;DHT22;11123;49.882;8.662;2022-10-16T10:22:31;18.10;99.90
21918;DHT22;11123;49.882;8.662;2022-10-16T10:25:18;18.00;99.90
21918;DHT22;11123;49.882;8.662;2022-10-16T10:28:00;18.10;99.90
21918;DHT22;11123;49.882;8.662;2022-10-16T10:30:38;18.00;99.90
21918;DHT22;11123;49.882;8.662;2022-10-16T10:33:20;18.00;99.90
21918;DHT22;11123;49.882;8.662;2022-10-16T10:35:56;18.10;99.90
21918;DHT22;11123;49.882;8.662;2022-10-16T10:38:34;18.20;99.90
21918;DHT22;11123;49.882;8.662;2022-10-16T10:41:23;18.40;99.90
21918;DHT22;11123;49.882;8.662;2022-10-16T10:44:06;18.50;99.90
21918;DHT22;11123;49.882;8.662;2022-10-16T10:46:42;18.60;99.90
21918;DHT22;11123;49.882;8.662;2022-10-16T10:49:31;18.40;99.90
21918;DHT22;11123;49.882;8.662;2022-10-16T10:52:16;18.50;99.90
21918;DHT22;11123;49.882;8.662;2022-10-16T10:54:51;18.80;99.90
21918;DHT22;11123;49.882;8.662;2022-10-16T10:57:29;18.90;99.90
21918;DHT22;11123;49.882;8.662;2022-10-16T11:00:18;18.90;99.90
21918;DHT22;11123;49.882;8.662;2022-10-16T11:02:53;18.90;99.90
21918;DHT22;11123;49.882;8.662;2022-10-16T11:05:40;19.20;99.90
21918;DHT22;11123;49.882;8.662;2022-10-16T11:08:15;19.50;99.90
21918;DHT22;11123;49.882;8.662;2022-10-16T11:10:52;19.50;99.90
21918;DHT22;11123;49.882;8.662;2022-10-16T11:13:32;19.70;99.90
21918;DHT22;11123;49.882;8.662;2022-10-16T11:16:13;19.60;99.90
21918;DHT22;11123;49.882;8.662;2022-10-16T11:18:54;19.30;99.90
21918;DHT22;11123;49.882;8.662;2022-10-16T11:21:26;19.00;99.90
21918;DHT22;11123;49.882;8.662;2022-10-16T11:24:00;18.70;99.90
21918;DHT22;11123;49.882;8.662;2022-10-16T11:26:35;18.80;99.90
21918;DHT22;11123;49.882;8.662;2022-10-16T11:29:05;19.10;99.90
21918;DHT22;11123;49.882;8.662;2022-10-16T11:31:43;19.30;99.90
21918;DHT22;11123;49.882;8.662;2022-10-16T11:34:19;19.30;99.90
21918;DHT22;11123;49.882;8.662;2022-10-16T11:36:56;19.70;99.90
21918;DHT22;11123;49.882;8.662;2022-10-16T11:39:28;21.60;99.90
21918;DHT22;11123;49.882;8.662;2022-10-16T11:42:02;22.70;99.90
21918;DHT22;11123;49.882;8.662;2022-10-16T11:44:44;22.70;99.90
21918;DHT22;11123;49.882;8.662;2022-10-16T11:47:27;22.50;99.90
21918;DHT22;11123;49.882;8.662;2022-10-16T11:50:23;21.70;99.90
21918;DHT22;11123;49.882;8.662;2022-10-16T11:53:00;20.80;99.90
21918;DHT22;11123;49.882;8.662;2022-10-16T11:55:34;20.50;99.90
21918;DHT22;11123;49.882;8.662;2022-10-16T11:58:19;20.80;99.90
21918;DHT22;11123;49.882;8.662;2022-10-16T12:00:56;21.30;99.90
21918;DHT22;11123;49.882;8.662;2022-10-16T12:03:30;22.50;99.90
21918;DHT22;11123;49.882;8.662;2022-10-16T12:06:22;22.70;99.90
21918;DHT22;11123;49.882;8.662;2022-10-16T12:08:55;22.00;99.90
21918;DHT22;11123;49.882;8.662;2022-10-16T12:11:33;22.20;99.90
21918;DHT22;11123;49.882;8.662;2022-10-16T12:14:16;23.40;99.90
21918;DHT22;11123;49.882;8.662;2022-10-16T12:16:54;23.50;99.90
21918;DHT22;11123;49.882;8.662;2022-10-16T12:19:25;22.30;99.90
21918;DHT22;11123;49.882;8.662;2022-10-16T12:21:56;21.60;99.90
21918;DHT22;11123;49.882;8.662;2022-10-16T12:24:35;21.50;99.90
21918;DHT22;11123;49.882;8.662;2022-10-16T12:27:17;21.20;99.90
21918;DHT22;11123;49.882;8.662;2022-10-16T12:29:54;20.90;99.90
21918;DHT22;11123;49.882;8.662;2022-10-16T12:32:28;22.20;99.90
21918;DHT22;11123;49.882;8.662;2022-10-16T12:35:20;23.10;99.90
21918;DHT22;11123;49.882;8.662;2022-10-16T12:37:49;23.10;99.90
21918;DHT22;11123;49.882;8.662;2022-10-16T12:40:27;22.10;99.90
21918;DHT22;11123;49.882;8.662;2022-10-16T12:42:56;21.50;99.90
21918;DHT22;11123;49.882;8.662;2022-10-16T12:45:28;21.30;99.90
21918;DHT22;11123;49.882;8.662;2022-10-16T12:48:01;21.20;99.90
21918;DHT22;11123;49.882;8.662;2022-10-16T12:50:33;21.10;99.90
21918;DHT22;11123;49.882;8.662;2022-10-16T12:53:19;20.60;99.90
21918;DHT22;11123;49.882;8.662;2022-10-16T12:55:56;20.60;99.90
21918;DHT22;11123;49.882;8.662;2022-10-16T12:58:42;20.50;99.90
21918;DHT22;11123;49.882;8.662;2022-10-16T13:01:24;20.10;99.90
21918;DHT22;11123;49.882;8.662;2022-10-16T13:06:53;20.20;99.90
21918;DHT22;11123;49.882;8.662;2022-10-16T13:09:37;20.40;99.90
21918;DHT22;11123;49.882;8.662;2022-10-16T13:12:17;20.30;99.90
21918;DHT22;11123;49.882;8.662;2022-10-16T13:18:01;20.40;99.90
21918;DHT22;11123;49.882;8.662;2022-10-16T13:20:46;20.40;99.90
21918;DHT22;11123;49.882;8.662;2022-10-16T13:23:23;20.40;99.90
21918;DHT22;11123;49.882;8.662;2022-10-16T13:26:04;20.40;99.90
21918;DHT22;11123;49.882;8.662;2022-10-16T13:28:37;20.30;99.90
21918;DHT22;11123;49.882;8.662;2022-10-16T13:31:14;20.10;99.90
21918;DHT22;11123;49.882;8.662;2022-10-16T13:33:47;20.10;99.90
21918;DHT22;11123;49.882;8.662;2022-10-16T13:36:20;20.00;99.90
21918;DHT22;11123;49.882;8.662;2022-10-16T13:38:49;19.90;99.90
21918;DHT22;11123;49.882;8.662;2022-10-16T13:41:36;19.90;99.90
21918;DHT22;11123;49.882;8.662;2022-10-16T13:44:20;19.70;99.90
21918;DHT22;11123;49.882;8.662;2022-10-16T13:46:58;19.70;99.90
21918;DHT22;11123;49.882;8.662;2022-10-16T13:49:27;19.60;99.90
21918;DHT22;11123;49.882;8.662;2022-10-16T13:51:59;19.60;99.90
21918;DHT22;11123;49.882;8.662;2022-10-16T13:54:28;19.50;99.90
21918;DHT22;11123;49.882;8.662;2022-10-16T13:57:06;19.40;99.90
21918;DHT22;11123;49.882;8.662;2022-10-16T13:59:55;19.40;99.90
21918;DHT22;11123;49.882;8.662;2022-10-16T14:02:26;19.30;99.90
21918;DHT22;11123;49.882;8.662;2022-10-16T14:04:57;19.30;99.90
21918;DHT22;11123;49.882;8.662;2022-10-16T14:07:28;19.30;99.90
21918;DHT22;11123;49.882;8.662;2022-10-16T14:10:01;19.20;99.90
21918;DHT22;11123;49.882;8.662;2022-10-16T14:12:31;19.20;99.90
21918;DHT22;11123;49.882;8.662;2022-10-16T14:15:02;19.20;99.90
21918;DHT22;11123;49.882;8.662;2022-10-16T14:17:34;19.20;99.90
21918;DHT22;11123;49.882;8.662;2022-10-16T14:20:04;19.20;99.90
21918;DHT22;11123;49.882;8.662;2022-10-16T14:22:35;19.20;99.90
21918;DHT22;11123;49.882;8.662;2022-10-16T14:25:28;19.20;99.90
21918;DHT22;11123;49.882;8.662;2022-10-16T14:27:59;19.30;99.90
21918;DHT22;11123;49.882;8.662;2022-10-16T14:30:35;19.30;99.90
21918;DHT22;11123;49.882;8.662;2022-10-16T14:33:18;19.40;99.90
21918;DHT22;11123;49.882;8.662;2022-10-16T14:36:00;19.40;99.90
21918;DHT22;11123;49.882;8.662;2022-10-16T14:38:29;19.40;99.90
21918;DHT22;11123;49.882;8.662;2022-10-16T14:40:59;19.30;99.90
21918;DHT22;11123;49.882;8.662;2022-10-16T14:43:32;19.30;99.90
21918;DHT22;11123;49.882;8.662;2022-10-16T14:46:05;19.20;99.90
21918;DHT22;11123;49.882;8.662;2022-10-16T14:48:35;19.20;99.90
21918;DHT22;11123;49.882;8.662;2022-10-16T14:51:07;19.20;99.90
21918;DHT22;11123;49.882;8.662;2022-10-16T14:53:36;19.10;99.90
21918;DHT22;11123;49.882;8.662;2022-10-16T14:56:06;19.10;99.90
21918;DHT22;11123;49.882;8.662;2022-10-16T14:58:35;19.10;99.90
21918;DHT22;11123;49.882;8.662;2022-10-16T15:01:06;19.10;99.90
21918;DHT22;11123;49.882;8.662;2022-10-16T15:03:35;19.00;99.90
21918;DHT22;11123;49.882;8.662;2022-10-16T15:06:09;19.00;99.90
21918;DHT22;11123;49.882;8.662;2022-10-16T15:08:39;19.00;99.90
21918;DHT22;11123;49.882;8.662;2022-10-16T15:11:10;19.00;99.90
21918;DHT22;11123;49.882;8.662;2022-10-16T15:13:40;19.10;99.90
21918;DHT22;11123;49.882;8.662;2022-10-16T15:16:11;19.10;99.90
21918;DHT22;11123;49.882;8.662;2022-10-16T15:18:39;19.10;99.90
21918;DHT22;11123;49.882;8.662;2022-10-16T15:21:08;19.10;99.90
21918;DHT22;11123;49.882;8.662;2022-10-16T15:23:37;19.10;99.90
21918;DHT22;11123;49.882;8.662;2022-10-16T15:26:05;19.20;99.90
21918;DHT22;11123;49.882;8.662;2022-10-16T15:28:34;19.20;99.90
21918;DHT22;11123;49.882;8.662;2022-10-16T15:31:04;19.20;99.90
21918;DHT22;11123;49.882;8.662;2022-10-16T15:33:34;19.20;99.90
21918;DHT22;11123;49.882;8.662;2022-10-16T15:36:06;19.20;99.90
21918;DHT22;11123;49.882;8.662;2022-10-16T15:38:35;19.20;99.90
21918;DHT22;11123;49.882;8.662;2022-10-16T15:41:04;19.10;99.90
21918;DHT22;11123;49.882;8.662;2022-10-16T15:43:32;19.10;99.90
21918;DHT22;11123;49.882;8.662;2022-10-16T15:46:03;19.00;99.90
21918;DHT22;11123;49.882;8.662;2022-10-16T15:48:34;19.00;99.90
21918;DHT22;11123;49.882;8.662;2022-10-16T15:51:05;19.00;99.90
21918;DHT22;11123;49.882;8.662;2022-10-16T15:53:34;19.00;99.90
21918;DHT22;11123;49.882;8.662;2022-10-16T15:56:03;19.00;99.90
21918;DHT22;11123;49.882;8.662;2022-10-16T15:58:31;18.90;99.90
21918;DHT22;11123;49.882;8.662;2022-10-16T16:01:01;18.90;99.90
21918;DHT22;11123;49.882;8.662;2022-10-16T16:03:30;18.80;99.90
21918;DHT22;11123;49.882;8.662;2022-10-16T16:06:06;18.80;99.90
21918;DHT22;11123;49.882;8.662;2022-10-16T16:08:35;18.70;99.90
21918;DHT22;11123;49.882;8.662;2022-10-16T16:11:05;18.70;99.90
21918;DHT22;11123;49.882;8.662;2022-10-16T16:13:34;18.60;99.90